Time,TemperatureF,DewpointF,PressureIn,WindDirection,WindDirectionDegrees,WindSpeedMPH,WindSpeedGustMPH,Humidity,HourlyPrecipIn,Conditions,Clouds,dailyrainin,SoftwareType,DateUTC
2013-09-24 00:04:00,72.0,65.5,29.96,NNW,347,17.0,34.0,80,0.00,,,0.00,Weather View 32 v70,2013-09-24 10:04:00,
2013-09-24 00:09:00,72.6,64.9,29.96,North,360,17.0,34.0,77,0.00,,,0.00,Weather View 32 v70,2013-09-24 10:09:00,
2013-09-24 00:14:00,72.2,65.7,29.94,North,358,26.0,34.0,80,0.00,,,0.00,Weather View 32 v70,2013-09-24 10:14:00,
2013-09-24 00:19:00,71.7,66.2,29.94,North,2,23.0,34.0,83,0.00,,,0.00,Weather View 32 v70,2013-09-24 10:19:00,
2013-09-24 00:24:00,71.7,65.9,29.95,NNW,341,23.0,34.0,82,0.00,,,0.00,Weather View 32 v70,2013-09-24 10:24:00,
2013-09-24 00:29:00,72.1,65.6,29.96,North,2,19.0,34.0,80,0.00,,,0.00,Weather View 32 v70,2013-09-24 10:29:00,
2013-09-24 00:34:00,72.4,65.9,29.95,NNE,12,16.0,33.0,80,0.00,,,0.00,Weather View 32 v70,2013-09-24 10:34:00,
2013-09-24 00:39:00,72.6,66.1,29.95,NNW,342,19.0,33.0,80,0.00,,,0.00,Weather View 32 v70,2013-09-24 10:39:00,
2013-09-24 00:44:00,72.6,65.7,29.94,NNW,336,25.0,33.0,79,0.00,,,0.00,Weather View 32 v70,2013-09-24 10:44:00,
2013-09-24 00:49:00,72.6,65.7,29.94,NNW,336,17.0,33.0,79,0.00,,,0.00,Weather View 32 v70,2013-09-24 10:49:00,
2013-09-24 00:54:00,72.4,65.9,29.94,NNW,337,18.0,35.0,80,0.00,,,0.00,Weather View 32 v70,2013-09-24 10:54:00,
2013-09-24 00:59:00,72.2,65.7,29.95,North,8,20.0,35.0,80,0.00,,,0.00,Weather View 32 v70,2013-09-24 10:59:00,
2013-09-24 01:04:00,72.7,65.0,29.95,North,8,20.0,35.0,77,0.00,,,0.00,Weather View 32 v70,2013-09-24 11:04:00,
2013-09-24 01:09:00,72.8,65.1,29.95,NNW,334,19.0,35.0,77,0.00,,,0.00,Weather View 32 v70,2013-09-24 11:09:00,
2013-09-24 01:14:00,72.6,65.3,29.94,North,360,22.0,35.0,78,0.00,,,0.00,Weather View 32 v70,2013-09-24 11:14:00,
2013-09-24 01:19:00,72.6,65.3,29.94,North,349,26.0,35.0,78,0.00,,,0.00,Weather View 32 v70,2013-09-24 11:19:00,
2013-09-24 01:24:00,72.8,64.4,29.93,North,351,19.0,35.0,75,0.00,,,0.00,Weather View 32 v70,2013-09-24 11:24:00,
2013-09-24 01:29:00,73.3,64.1,29.92,North,357,14.0,37.0,73,0.00,,,0.00,Weather View 32 v70,2013-09-24 11:29:00,
2013-09-24 01:34:00,73.0,64.6,29.94,NE,44,17.0,37.0,75,0.00,,,0.00,Weather View 32 v70,2013-09-24 11:34:00,
2013-09-24 01:39:00,73.5,63.5,29.92,North,351,33.0,37.0,71,0.00,,,0.00,Weather View 32 v70,2013-09-24 11:39:00,
2013-09-24 01:44:00,74.0,64.0,29.93,North,8,24.0,38.0,71,0.00,,,0.00,Weather View 32 v70,2013-09-24 11:44:00,
2013-09-24 01:49:00,73.4,64.6,29.93,NNW,344,31.0,38.0,74,0.00,,,0.00,Weather View 32 v70,2013-09-24 11:49:00,
2013-09-24 01:54:00,73.0,64.6,29.93,NNW,346,33.0,40.0,75,0.00,,,0.00,Weather View 32 v70,2013-09-24 11:54:00,
2013-09-24 01:59:00,73.0,64.6,29.93,NNW,331,24.0,40.0,75,0.00,,,0.00,Weather View 32 v70,2013-09-24 11:59:00,
2013-09-24 02:04:00,73.1,65.1,29.92,NNW,347,23.0,40.0,76,0.00,,,0.00,Weather View 32 v70,2013-09-24 12:04:00,
2013-09-24 02:09:00,73.2,64.8,29.93,NNW,340,21.0,46.0,75,0.00,,,0.00,Weather View 32 v70,2013-09-24 12:09:00,
2013-09-24 02:14:00,73.1,64.7,29.93,NNW,331,21.0,46.0,75,0.00,,,0.00,Weather View 32 v70,2013-09-24 12:14:00,
2013-09-24 02:19:00,73.1,65.1,29.92,NNW,346,21.0,46.0,76,0.00,,,0.00,Weather View 32 v70,2013-09-24 12:19:00,
2013-09-24 02:24:00,72.9,65.2,29.92,North,8,18.0,46.0,77,0.00,,,0.00,Weather View 32 v70,2013-09-24 12:24:00,
2013-09-24 02:29:00,72.7,65.4,29.91,North,350,34.0,46.0,78,0.00,,,0.00,Weather View 32 v70,2013-09-24 12:29:00,
2013-09-24 02:34:00,72.6,65.3,29.91,NNW,345,31.0,46.0,78,0.00,,,0.00,Weather View 32 v70,2013-09-24 12:34:00,
2013-09-24 02:39:00,72.7,65.4,29.91,North,1,25.0,46.0,78,0.00,,,0.00,Weather View 32 v70,2013-09-24 12:39:00,
2013-09-24 02:44:00,72.9,65.2,29.93,North,357,34.0,46.0,77,0.00,,,0.00,Weather View 32 v70,2013-09-24 12:44:00,
2013-09-24 02:49:00,72.9,65.2,29.93,North,4,25.0,46.0,77,0.00,,,0.00,Weather View 32 v70,2013-09-24 12:49:00,
2013-09-24 02:54:00,72.9,65.2,29.93,North,357,25.0,46.0,77,0.00,,,0.00,Weather View 32 v70,2013-09-24 12:54:00,
2013-09-24 02:59:00,73.1,65.1,29.91,North,360,19.0,46.0,76,0.00,,,0.00,Weather View 32 v70,2013-09-24 12:59:00,
2013-09-24 03:04:00,73.4,65.0,29.93,NNW,336,23.0,46.0,75,0.00,,,0.00,Weather View 32 v70,2013-09-24 13:04:00,
2013-09-24 03:09:00,73.3,65.2,29.92,North,358,16.0,39.0,76,0.00,,,0.00,Weather View 32 v70,2013-09-24 13:09:00,
2013-09-24 03:14:00,73.3,64.5,29.93,NNW,344,24.0,39.0,74,0.00,,,0.00,Weather View 32 v70,2013-09-24 13:14:00,
2013-09-24 03:19:00,73.5,65.1,29.94,NNW,343,27.0,39.0,75,0.00,,,0.00,Weather View 32 v70,2013-09-24 13:19:00,
2013-09-24 03:24:00,73.3,64.9,29.93,NNW,337,24.0,39.0,75,0.00,,,0.00,Weather View 32 v70,2013-09-24 13:24:00,
2013-09-24 03:29:00,73.3,64.5,29.92,North,357,19.0,39.0,74,0.00,,,0.00,Weather View 32 v70,2013-09-24 13:29:00,
2013-09-24 03:34:00,73.5,64.3,29.93,NW,314,16.0,39.0,73,0.00,,,0.00,Weather View 32 v70,2013-09-24 13:34:00,
2013-09-24 03:39:00,73.5,63.9,29.92,North,357,13.0,39.0,72,0.00,,,0.00,Weather View 32 v70,2013-09-24 13:39:00,
2013-09-24 03:44:00,73.4,63.8,29.93,NE,45,14.0,39.0,72,0.00,,,0.00,Weather View 32 v70,2013-09-24 13:44:00,
2013-09-24 03:49:00,73.4,64.6,29.93,North,351,20.0,39.0,74,0.00,,,0.00,Weather View 32 v70,2013-09-24 13:49:00,
2013-09-24 03:54:00,73.1,64.7,29.92,North,10,18.0,39.0,75,0.00,,,0.00,Weather View 32 v70,2013-09-24 13:54:00,
2013-09-24 03:59:00,73.0,64.6,29.92,North,355,21.0,39.0,75,0.00,,,0.00,Weather View 32 v70,2013-09-24 13:59:00,
2013-09-24 04:04:00,73.0,65.0,29.92,North,351,23.0,38.0,76,0.00,,,0.00,Weather View 32 v70,2013-09-24 14:04:00,
2013-09-24 04:09:00,73.2,64.0,29.93,North,357,21.0,38.0,73,0.00,,,0.00,Weather View 32 v70,2013-09-24 14:09:00,
2013-09-24 04:14:00,73.4,63.8,29.92,NNW,337,27.0,33.0,72,0.00,,,0.00,Weather View 32 v70,2013-09-24 14:14:00,
2013-09-24 04:19:00,73.3,64.1,29.93,NW,323,23.0,32.0,73,0.00,,,0.00,Weather View 32 v70,2013-09-24 14:19:00,
2013-09-24 04:24:00,73.0,64.6,29.93,North,4,24.0,32.0,75,0.00,,,0.00,Weather View 32 v70,2013-09-24 14:24:00,
2013-09-24 04:29:00,73.0,64.6,29.93,North,7,19.0,32.0,75,0.00,,,0.00,Weather View 32 v70,2013-09-24 14:29:00,
2013-09-24 04:35:00,72.9,64.9,29.93,NNE,15,21.0,32.0,76,0.00,,,0.00,Weather View 32 v70,2013-09-24 14:35:00,
2013-09-24 04:40:00,73.1,65.1,29.92,North,350,24.0,34.0,76,0.00,,,0.00,Weather View 32 v70,2013-09-24 14:40:00,
2013-09-24 04:45:00,73.1,65.1,29.92,NNE,18,26.0,34.0,76,0.00,,,0.00,Weather View 32 v70,2013-09-24 14:45:00,
2013-09-24 04:50:00,72.9,65.2,29.92,NNE,16,28.0,34.0,77,0.00,,,0.00,Weather View 32 v70,2013-09-24 14:50:00,
2013-09-24 04:55:00,72.9,65.6,29.94,NNE,12,20.0,34.0,78,0.00,,,0.00,Weather View 32 v70,2013-09-24 14:55:00,
2013-09-24 05:00:00,72.9,65.6,29.92,North,4,26.0,34.0,78,0.00,,,0.00,Weather View 32 v70,2013-09-24 15:00:00,
2013-09-24 05:05:00,72.7,66.1,29.94,NNW,347,22.0,34.0,80,0.00,,,0.00,Weather View 32 v70,2013-09-24 15:05:00,
2013-09-24 05:10:00,72.5,66.3,29.93,NNE,28,22.0,34.0,81,0.00,,,0.00,Weather View 32 v70,2013-09-24 15:10:00,
2013-09-24 05:15:00,72.5,66.3,29.93,NNW,338,20.0,34.0,81,0.00,,,0.00,Weather View 32 v70,2013-09-24 15:15:00,
2013-09-24 05:20:00,72.4,66.9,29.94,NW,318,20.0,34.0,83,0.00,,,0.00,Weather View 32 v70,2013-09-24 15:20:00,
2013-09-24 05:25:00,72.3,66.1,29.92,North,353,29.0,34.0,81,0.00,,,0.00,Weather View 32 v70,2013-09-24 15:25:00,
2013-09-24 05:30:00,72.4,65.9,29.94,North,350,19.0,34.0,80,0.00,,,0.00,Weather View 32 v70,2013-09-24 15:30:00,
2013-09-24 05:35:00,72.3,65.8,29.94,North,360,17.0,34.0,80,0.00,,,0.00,Weather View 32 v70,2013-09-24 15:35:00,
2013-09-24 05:40:00,72.4,66.2,29.93,North,357,23.0,33.0,81,0.00,,,0.00,Weather View 32 v70,2013-09-24 15:40:00,
2013-09-24 05:45:00,72.3,66.8,29.94,NNW,346,24.0,33.0,83,0.00,,,0.00,Weather View 32 v70,2013-09-24 15:45:00,
2013-09-24 05:50:00,72.2,66.7,29.94,North,359,19.0,33.0,83,0.00,,,0.00,Weather View 32 v70,2013-09-24 15:50:00,
2013-09-24 05:55:00,72.0,66.5,29.94,North,359,23.0,33.0,83,0.00,,,0.00,Weather View 32 v70,2013-09-24 15:55:00,
2013-09-24 06:00:00,71.7,66.9,29.95,North,6,18.0,32.0,85,0.00,,,0.00,Weather View 32 v70,2013-09-24 16:00:00,
2013-09-24 06:05:00,71.0,66.9,29.96,North,360,20.0,32.0,87,0.00,,,0.00,Weather View 32 v70,2013-09-24 16:05:00,
2013-09-24 06:10:00,70.9,66.8,29.96,NNW,342,15.0,32.0,87,0.00,,,0.00,Weather View 32 v70,2013-09-24 16:10:00,
2013-09-24 06:15:00,71.0,66.9,29.95,North,355,24.0,32.0,87,0.00,,,0.00,Weather View 32 v70,2013-09-24 16:15:00,
2013-09-24 06:20:00,70.8,67.1,29.95,North,353,24.0,32.0,88,0.00,,,0.00,Weather View 32 v70,2013-09-24 16:20:00,
2013-09-24 06:25:00,70.2,66.5,29.96,NW,317,11.0,31.0,88,0.00,,,0.00,Weather View 32 v70,2013-09-24 16:25:00,
2013-09-24 06:30:00,70.3,66.2,29.97,North,6,13.0,30.0,87,0.00,,,0.00,Weather View 32 v70,2013-09-24 16:30:00,
2013-09-24 06:35:00,71.1,66.0,29.96,NNW,337,20.0,30.0,84,0.00,,,0.00,Weather View 32 v70,2013-09-24 16:35:00,
2013-09-24 06:40:00,71.9,66.1,29.95,NNW,328,14.0,30.0,82,0.01,,,0.01,Weather View 32 v70,2013-09-24 16:40:00,
2013-09-24 06:45:00,72.1,66.3,29.96,North,359,15.0,30.0,82,0.01,,,0.01,Weather View 32 v70,2013-09-24 16:45:00,
2013-09-24 06:50:00,72.6,66.4,29.96,North,349,17.0,30.0,81,0.01,,,0.01,Weather View 32 v70,2013-09-24 16:50:00,
2013-09-24 06:55:00,72.7,66.5,29.96,NNE,12,14.0,29.0,81,0.01,,,0.01,Weather View 32 v70,2013-09-24 16:55:00,
2013-09-24 07:00:00,72.9,66.3,29.96,North,357,10.0,29.0,80,0.01,,,0.01,Weather View 32 v70,2013-09-24 17:00:00,
2013-09-24 07:05:00,72.9,66.3,29.96,NNE,27,14.0,29.0,80,0.01,,,0.01,Weather View 32 v70,2013-09-24 17:05:00,
2013-09-24 07:10:00,72.9,66.0,29.95,NNW,344,17.0,29.0,79,0.01,,,0.01,Weather View 32 v70,2013-09-24 17:10:00,
2013-09-24 07:15:00,73.1,65.8,29.96,North,4,13.0,29.0,78,0.01,,,0.01,Weather View 32 v70,2013-09-24 17:15:00,
2013-09-24 07:20:00,73.1,66.2,29.95,North,355,25.0,26.0,79,0.01,,,0.01,Weather View 32 v70,2013-09-24 17:20:00,
2013-09-24 07:25:00,73.1,65.8,29.96,NNW,347,22.0,27.0,78,0.01,,,0.01,Weather View 32 v70,2013-09-24 17:25:00,
2013-09-24 07:30:00,72.9,66.3,29.96,NNW,345,28.0,30.0,80,0.01,,,0.01,Weather View 32 v70,2013-09-24 17:30:00,
2013-09-24 07:35:00,72.9,66.7,29.96,North,10,15.0,30.0,81,0.01,,,0.01,Weather View 32 v70,2013-09-24 17:35:00,
2013-09-24 07:40:00,72.9,67.1,29.96,NNE,30,12.0,30.0,82,0.00,,,0.01,Weather View 32 v70,2013-09-24 17:40:00,
2013-09-24 07:45:00,73.0,67.5,29.97,NNW,341,23.0,30.0,83,0.00,,,0.01,Weather View 32 v70,2013-09-24 17:45:00,
2013-09-24 07:50:00,73.1,67.6,29.97,NNW,340,25.0,30.0,83,0.00,,,0.01,Weather View 32 v70,2013-09-24 17:50:00,
2013-09-24 07:55:00,73.0,67.2,29.97,NNW,335,13.0,30.0,82,0.00,,,0.01,Weather View 32 v70,2013-09-24 17:55:00,
2013-09-24 08:00:00,73.0,67.5,29.98,NNE,16,12.0,30.0,83,0.00,,,0.01,Weather View 32 v70,2013-09-24 18:00:00,
2013-09-24 08:05:00,73.2,68.1,29.98,NNE,21,21.0,30.0,84,0.00,,,0.01,Weather View 32 v70,2013-09-24 18:05:00,
2013-09-24 08:10:00,73.1,67.6,29.98,NNE,18,17.0,30.0,83,0.00,,,0.01,Weather View 32 v70,2013-09-24 18:10:00,
2013-09-24 08:15:00,72.9,67.1,29.99,NNE,18,14.0,30.0,82,0.00,,,0.01,Weather View 32 v70,2013-09-24 18:15:00,
2013-09-24 08:20:00,73.1,67.3,29.99,NNE,24,8.0,30.0,82,0.00,,,0.01,Weather View 32 v70,2013-09-24 18:20:00,
2013-09-24 08:25:00,73.2,67.4,30.00,NNE,33,12.0,30.0,82,0.00,,,0.01,Weather View 32 v70,2013-09-24 18:25:00,
2013-09-24 08:30:00,73.2,67.7,30.00,NE,47,9.0,29.0,83,0.00,,,0.01,Weather View 32 v70,2013-09-24 18:30:00,
2013-09-24 08:35:00,73.1,68.0,29.99,NNE,18,12.0,27.0,84,0.00,,,0.01,Weather View 32 v70,2013-09-24 18:35:00,
2013-09-24 08:40:00,72.9,67.8,29.99,North,357,10.0,26.0,84,0.00,,,0.01,Weather View 32 v70,2013-09-24 18:40:00,
2013-09-24 08:46:00,73.5,68.0,29.99,NNE,24,11.0,26.0,83,0.00,,,0.01,Weather View 32 v70,2013-09-24 18:46:00,
2013-09-24 08:51:00,73.4,67.9,29.99,North,358,13.0,26.0,83,0.00,,,0.01,Weather View 32 v70,2013-09-24 18:51:00,
2013-09-24 08:56:00,73.5,68.3,29.99,NE,37,12.0,24.0,84,0.00,,,0.01,Weather View 32 v70,2013-09-24 18:56:00,
2013-09-24 09:01:00,73.8,68.3,29.99,NNE,30,11.0,24.0,83,0.00,,,0.01,Weather View 32 v70,2013-09-24 19:01:00,
2013-09-24 09:08:00,74.0,68.1,29.99,NNE,26,8.0,24.0,82,0.00,,,0.01,Weather View 32 v70,2013-09-24 19:08:00,
2013-09-24 09:16:00,74.5,67.9,30.00,NE,35,7.0,19.0,80,0.00,,,0.01,Weather View 32 v70,2013-09-24 19:16:00,
2013-09-24 09:22:00,74.0,68.1,30.00,NNE,31,9.0,18.0,82,0.00,,,0.01,Weather View 32 v70,2013-09-24 19:22:00,
2013-09-24 09:25:00,73.8,68.3,30.00,North,7,10.0,18.0,83,0.00,,,0.01,Weather View 32 v70,2013-09-24 19:25:00,
2013-09-24 09:28:00,74.0,68.5,29.99,North,8,10.0,18.0,83,0.00,,,0.01,Weather View 32 v70,2013-09-24 19:28:00,
2013-09-24 09:30:00,74.0,68.1,29.99,NNE,12,15.0,18.0,82,0.00,,,0.01,Weather View 32 v70,2013-09-24 19:30:00,
2013-09-24 09:34:00,73.9,68.7,30.00,NE,37,12.0,18.0,84,0.00,,,0.01,Weather View 32 v70,2013-09-24 19:34:00,
2013-09-24 09:35:00,73.9,68.7,29.99,NNE,28,12.0,18.0,84,0.00,,,0.01,Weather View 32 v70,2013-09-24 19:35:00,
2013-09-24 09:40:00,74.2,68.7,29.99,NNE,29,13.0,17.0,83,0.00,,,0.01,Weather View 32 v70,2013-09-24 19:40:00,
2013-09-24 09:45:00,74.3,67.0,29.99,North,6,11.0,18.0,78,0.00,,,0.01,Weather View 32 v70,2013-09-24 19:45:00,
2013-09-24 09:46:00,74.3,67.0,29.99,North,8,11.0,18.0,78,0.00,,,0.01,Weather View 32 v70,2013-09-24 19:46:00,
2013-09-24 09:50:00,74.9,68.3,29.99,NE,56,9.0,18.0,80,0.00,,,0.01,Weather View 32 v70,2013-09-24 19:50:00,
2013-09-24 09:51:00,75.3,69.0,29.99,NE,35,10.0,18.0,81,0.00,,,0.01,Weather View 32 v70,2013-09-24 19:51:00,
2013-09-24 09:56:00,75.5,68.5,29.99,NNE,29,10.0,18.0,79,0.00,,,0.01,Weather View 32 v70,2013-09-24 19:56:00,
2013-09-24 10:01:00,76.5,67.2,29.99,North,11,15.0,18.0,73,0.00,,,0.01,Weather View 32 v70,2013-09-24 20:01:00,
2013-09-24 10:05:00,76.7,65.3,29.99,NNE,28,10.0,18.0,68,0.00,,,0.01,Weather View 32 v70,2013-09-24 20:05:00,
2013-09-24 10:07:00,76.8,66.2,29.99,NNE,28,8.0,18.0,70,0.00,,,0.01,Weather View 32 v70,2013-09-24 20:07:00,
2013-09-24 10:12:00,77.1,66.1,29.99,NNE,30,14.0,23.0,69,0.00,,,0.01,Weather View 32 v70,2013-09-24 20:12:00,
2013-09-24 10:17:00,76.7,65.3,29.99,NE,48,13.0,23.0,68,0.00,,,0.01,Weather View 32 v70,2013-09-24 20:17:00,
2013-09-24 10:20:00,76.7,65.3,29.97,NNE,22,19.0,24.0,68,0.00,,,0.01,Weather View 32 v70,2013-09-24 20:20:00,
2013-09-24 10:22:00,76.6,65.2,29.98,NNE,24,19.0,24.0,68,0.00,,,0.01,Weather View 32 v70,2013-09-24 20:22:00,
2013-09-24 10:25:00,76.5,66.8,29.99,North,8,10.0,24.0,72,0.00,,,0.01,Weather View 32 v70,2013-09-24 20:25:00,
2013-09-24 10:30:00,76.1,67.2,29.98,NNE,12,18.0,25.0,74,0.00,,,0.01,Weather View 32 v70,2013-09-24 20:30:00,
2013-09-24 10:35:00,75.7,66.4,29.99,North,5,18.0,29.0,73,0.00,,,0.01,Weather View 32 v70,2013-09-24 20:35:00,
2013-09-24 10:40:00,75.8,66.9,29.99,North,1,22.0,29.0,74,0.00,,,0.01,Weather View 32 v70,2013-09-24 20:40:00,
2013-09-24 10:46:00,75.8,66.9,29.98,North,351,19.0,30.0,74,0.00,,,0.01,Weather View 32 v70,2013-09-24 20:46:00,
2013-09-24 10:51:00,76.6,67.7,29.98,North,1,15.0,30.0,74,0.00,,,0.01,Weather View 32 v70,2013-09-24 20:51:00,
2013-09-24 10:58:00,76.1,67.6,29.98,ENE,58,16.0,30.0,75,0.00,,,0.01,Weather View 32 v70,2013-09-24 20:58:00,
2013-09-24 11:05:00,76.4,67.5,29.99,NNE,16,21.0,30.0,74,0.00,,,0.01,Weather View 32 v70,2013-09-24 21:05:00,
2013-09-24 11:11:00,76.2,66.9,29.97,NNE,16,19.0,30.0,73,0.00,,,0.01,Weather View 32 v70,2013-09-24 21:11:00,
2013-09-24 11:16:00,76.1,67.6,29.98,NNE,24,16.0,30.0,75,0.00,,,0.01,Weather View 32 v70,2013-09-24 21:16:00,
2013-09-24 11:20:00,76.5,67.6,29.97,NNE,24,17.0,30.0,74,0.00,,,0.01,Weather View 32 v70,2013-09-24 21:20:00,
2013-09-24 11:26:00,75.9,67.4,29.97,NNE,14,23.0,30.0,75,0.00,,,0.01,Weather View 32 v70,2013-09-24 21:26:00,
2013-09-24 11:31:00,76.0,67.5,29.98,NNW,339,14.0,30.0,75,0.00,,,0.01,Weather View 32 v70,2013-09-24 21:31:00,
2013-09-24 11:35:00,76.1,68.0,29.97,North,1,18.0,30.0,76,0.00,,,0.01,Weather View 32 v70,2013-09-24 21:35:00,
2013-09-24 11:37:00,76.1,68.0,29.98,NW,320,11.0,30.0,76,0.00,,,0.01,Weather View 32 v70,2013-09-24 21:37:00,
2013-09-24 11:40:00,75.5,67.4,29.98,NNW,332,14.0,30.0,76,0.00,,,0.01,Weather View 32 v70,2013-09-24 21:40:00,
2013-09-24 11:43:00,75.8,68.0,29.97,NNW,334,14.0,30.0,77,0.00,,,0.01,Weather View 32 v70,2013-09-24 21:43:00,
2013-09-24 11:45:00,75.9,68.1,29.98,NNE,29,9.0,30.0,77,0.00,,,0.01,Weather View 32 v70,2013-09-24 21:45:00,
2013-09-24 11:49:00,76.2,67.7,29.97,North,10,14.0,30.0,75,0.00,,,0.01,Weather View 32 v70,2013-09-24 21:49:00,
2013-09-24 11:50:00,76.2,67.7,29.98,NNE,29,17.0,30.0,75,0.00,,,0.01,Weather View 32 v70,2013-09-24 21:50:00,
2013-09-24 11:55:00,77.2,67.8,29.97,North,5,13.0,30.0,73,0.00,,,0.01,Weather View 32 v70,2013-09-24 21:55:00,
2013-09-24 11:56:00,77.4,68.0,29.98,NNE,27,16.0,30.0,73,0.00,,,0.01,Weather View 32 v70,2013-09-24 21:56:00,
2013-09-24 12:00:00,76.8,67.1,29.97,North,6,16.0,30.0,72,0.00,,,0.01,Weather View 32 v70,2013-09-24 22:00:00,
2013-09-24 12:02:00,76.5,66.8,29.97,NNE,20,17.0,30.0,72,0.00,,,0.01,Weather View 32 v70,2013-09-24 22:02:00,
2013-09-24 12:05:00,76.5,67.2,29.97,NNE,26,12.0,30.0,73,0.00,,,0.01,Weather View 32 v70,2013-09-24 22:05:00,
2013-09-24 12:08:00,76.9,67.5,29.96,NNE,18,16.0,30.0,73,0.00,,,0.01,Weather View 32 v70,2013-09-24 22:08:00,
2013-09-24 12:15:00,77.0,67.6,29.96,NNE,13,17.0,30.0,73,0.00,,,0.01,Weather View 32 v70,2013-09-24 22:15:00,
2013-09-24 12:23:00,75.5,68.1,29.96,North,6,23.0,30.0,78,0.00,,,0.01,Weather View 32 v70,2013-09-24 22:23:00,
2013-09-24 12:25:00,75.4,68.8,29.94,North,1,28.0,30.0,80,0.00,,,0.01,Weather View 32 v70,2013-09-24 22:25:00,
2013-09-24 12:30:00,75.4,69.1,29.95,NNW,345,28.0,30.0,81,0.00,,,0.01,Weather View 32 v70,2013-09-24 22:30:00,
2013-09-24 12:32:00,75.7,69.4,29.96,NNW,345,17.0,30.0,81,0.00,,,0.01,Weather View 32 v70,2013-09-24 22:32:00,
2013-09-24 12:38:00,75.5,69.2,29.96,North,6,20.0,30.0,81,0.00,,,0.01,Weather View 32 v70,2013-09-24 22:38:00,
2013-09-24 12:45:00,75.8,69.2,29.95,NNW,332,23.0,30.0,80,0.00,,,0.01,Weather View 32 v70,2013-09-24 22:45:00,
2013-09-24 12:50:00,75.8,69.2,29.94,North,359,28.0,30.0,80,0.00,,,0.01,Weather View 32 v70,2013-09-24 22:50:00,
2013-09-24 12:55:00,75.4,69.1,29.96,NNW,343,16.0,30.0,81,0.00,,,0.01,Weather View 32 v70,2013-09-24 22:55:00,
2013-09-24 13:00:00,75.5,69.2,29.95,NNW,341,20.0,30.0,81,0.00,,,0.01,Weather View 32 v70,2013-09-24 23:00:00,
2013-09-24 13:02:00,75.6,69.3,29.96,NNW,334,13.0,30.0,81,0.00,,,0.01,Weather View 32 v70,2013-09-24 23:02:00,
2013-09-24 13:05:00,75.8,69.5,29.95,ENE,62,16.0,30.0,81,0.00,,,0.01,Weather View 32 v70,2013-09-24 23:05:00,
2013-09-24 13:10:00,75.9,69.3,29.95,NNW,341,23.0,30.0,80,0.00,,,0.01,Weather View 32 v70,2013-09-24 23:10:00,
2013-09-24 13:20:00,76.1,69.1,29.95,NNW,339,23.0,31.0,79,0.00,,,0.01,Weather View 32 v70,2013-09-24 23:20:00,
2013-09-24 13:30:00,76.0,68.6,29.95,NNE,12,20.0,34.0,78,0.00,,,0.01,Weather View 32 v70,2013-09-24 23:30:00,
2013-09-24 13:35:00,75.3,68.3,29.95,North,360,28.0,34.0,79,0.00,,,0.01,Weather View 32 v70,2013-09-24 23:35:00,
2013-09-24 13:40:00,75.3,68.3,29.93,North,359,21.0,35.0,79,0.00,,,0.01,Weather View 32 v70,2013-09-24 23:40:00,
2013-09-24 13:42:00,75.0,68.0,29.94,NNW,330,30.0,35.0,79,0.00,,,0.01,Weather View 32 v70,2013-09-24 23:42:00,
2013-09-24 13:45:00,74.9,67.9,29.94,North,356,27.0,36.0,79,0.00,,,0.01,Weather View 32 v70,2013-09-24 23:45:00,
2013-09-24 13:49:00,74.9,67.9,29.94,North,351,29.0,36.0,79,0.00,,,0.01,Weather View 32 v70,2013-09-24 23:49:00,
2013-09-24 13:55:00,75.1,67.7,29.93,North,357,27.0,36.0,78,0.00,,,0.01,Weather View 32 v70,2013-09-24 23:55:00,
2013-09-24 14:03:00,75.1,68.1,29.94,NNW,332,33.0,36.0,79,0.00,,,0.01,Weather View 32 v70,2013-09-25 00:03:00,
2013-09-24 14:09:00,74.9,68.3,29.93,NNW,347,31.0,36.0,80,0.00,,,0.01,Weather View 32 v70,2013-09-25 00:09:00,
2013-09-24 14:14:00,75.1,68.5,29.93,NNW,345,18.0,36.0,80,0.00,,,0.01,Weather View 32 v70,2013-09-25 00:14:00,
2013-09-24 14:20:00,75.5,68.1,29.93,NNW,346,17.0,36.0,78,0.00,,,0.01,Weather View 32 v70,2013-09-25 00:20:00,
2013-09-24 14:26:00,75.4,66.9,29.94,NNW,337,12.0,36.0,75,0.00,,,0.01,Weather View 32 v70,2013-09-25 00:26:00,
2013-09-24 14:30:00,75.5,67.0,29.93,NNW,338,25.0,36.0,75,0.00,,,0.01,Weather View 32 v70,2013-09-25 00:30:00,
2013-09-24 14:33:00,75.8,66.9,29.94,NW,313,13.0,36.0,74,0.00,,,0.01,Weather View 32 v70,2013-09-25 00:33:00,
2013-09-24 14:40:00,75.8,66.9,29.94,NNE,20,17.0,36.0,74,0.00,,,0.01,Weather View 32 v70,2013-09-25 00:40:00,
2013-09-24 14:45:00,75.9,66.6,29.94,NNW,330,16.0,35.0,73,0.00,,,0.01,Weather View 32 v70,2013-09-25 00:45:00,
2013-09-24 14:50:00,76.0,66.7,29.93,NNW,347,19.0,35.0,73,0.00,,,0.01,Weather View 32 v70,2013-09-25 00:50:00,
2013-09-24 14:57:00,76.0,66.7,29.93,NNW,334,14.0,35.0,73,0.00,,,0.01,Weather View 32 v70,2013-09-25 00:57:00,
2013-09-24 15:02:00,76.0,67.1,29.93,NNE,29,16.0,35.0,74,0.00,,,0.01,Weather View 32 v70,2013-09-25 01:02:00,
2013-09-24 15:08:00,75.7,66.8,29.92,North,357,26.0,35.0,74,0.00,,,0.01,Weather View 32 v70,2013-09-25 01:08:00,
2013-09-24 15:25:00,76.8,66.2,29.94,North,349,13.0,33.0,70,0.00,,,0.01,Weather View 32 v70,2013-09-25 01:25:00,
2013-09-24 15:34:00,76.6,66.0,29.93,NNW,333,16.0,33.0,70,0.00,,,0.01,Weather View 32 v70,2013-09-25 01:34:00,
2013-09-24 15:39:00,76.4,65.9,29.94,NW,313,12.0,33.0,70,0.00,,,0.01,Weather View 32 v70,2013-09-25 01:39:00,
2013-09-24 15:45:00,76.4,65.9,29.95,North,3,14.0,33.0,70,0.00,,,0.01,Weather View 32 v70,2013-09-25 01:45:00,
2013-09-24 15:54:00,76.1,66.8,29.94,North,7,18.0,33.0,73,0.00,,,0.01,Weather View 32 v70,2013-09-25 01:54:00,
2013-09-24 15:59:00,75.6,67.1,29.94,NNE,16,19.0,33.0,75,0.00,,,0.01,Weather View 32 v70,2013-09-25 01:59:00,
2013-09-24 16:05:00,75.2,67.1,29.95,NNW,333,18.0,33.0,76,0.00,,,0.01,Weather View 32 v70,2013-09-25 02:05:00,
2013-09-24 16:10:00,75.4,67.3,29.94,NNE,22,14.0,33.0,76,-0.01,,,0.01,Weather View 32 v70,2013-09-25 02:10:00,
2013-09-24 16:16:00,75.6,67.5,29.95,NW,307,13.0,33.0,76,0.00,,,0.01,Weather View 32 v70,2013-09-25 02:16:00,
2013-09-24 16:21:00,75.5,67.4,29.95,WNW,283,10.0,33.0,76,0.00,,,0.01,Weather View 32 v70,2013-09-25 02:21:00,
2013-09-24 16:26:00,75.1,67.4,29.95,NW,313,13.0,33.0,77,0.00,,,0.01,Weather View 32 v70,2013-09-25 02:26:00,
2013-09-24 16:31:00,75.2,67.5,29.95,North,6,10.0,29.0,77,0.00,,,0.01,Weather View 32 v70,2013-09-25 02:31:00,
2013-09-24 16:36:00,75.1,67.4,29.95,NW,311,14.0,28.0,77,0.00,,,0.01,Weather View 32 v70,2013-09-25 02:36:00,
2013-09-24 16:41:00,75.1,67.4,29.95,NNW,341,22.0,28.0,77,0.00,,,0.01,Weather View 32 v70,2013-09-25 02:41:00,
2013-09-24 16:46:00,74.5,67.5,29.95,North,355,26.0,31.0,79,0.00,,,0.01,Weather View 32 v70,2013-09-25 02:46:00,
2013-09-24 16:51:00,74.0,67.8,29.95,NNW,341,26.0,35.0,81,0.00,,,0.01,Weather View 32 v70,2013-09-25 02:51:00,
2013-09-24 16:56:00,73.7,67.8,29.95,NNW,347,25.0,35.0,82,0.00,,,0.01,Weather View 32 v70,2013-09-25 02:56:00,
2013-09-24 17:01:00,73.6,68.1,29.95,NNW,335,28.0,35.0,83,0.00,,,0.01,Weather View 32 v70,2013-09-25 03:01:00,
2013-09-24 17:06:00,73.5,68.0,29.93,North,3,15.0,35.0,83,0.00,,,0.01,Weather View 32 v70,2013-09-25 03:06:00,
2013-09-24 17:11:00,73.5,68.3,29.96,North,360,25.0,37.0,84,0.00,,,0.01,Weather View 32 v70,2013-09-25 03:11:00,
2013-09-24 17:16:00,73.4,68.2,29.96,NNE,25,24.0,37.0,84,0.00,,,0.01,Weather View 32 v70,2013-09-25 03:16:00,
2013-09-24 17:21:00,73.3,68.5,29.96,North,356,17.0,37.0,85,0.00,,,0.01,Weather View 32 v70,2013-09-25 03:21:00,
2013-09-24 17:26:00,73.3,68.5,29.97,North,353,33.0,37.0,85,0.00,,,0.01,Weather View 32 v70,2013-09-25 03:26:00,
2013-09-24 17:31:00,73.2,68.4,29.97,North,7,17.0,37.0,85,0.00,,,0.01,Weather View 32 v70,2013-09-25 03:31:00,
2013-09-24 17:36:00,73.2,67.7,29.97,NNW,340,14.0,37.0,83,0.00,,,0.01,Weather View 32 v70,2013-09-25 03:36:00,
2013-09-24 17:42:00,73.4,66.8,29.96,NNW,342,21.0,37.0,80,0.00,,,0.01,Weather View 32 v70,2013-09-25 03:42:00,
2013-09-24 17:47:00,73.6,65.9,29.97,NNW,341,23.0,37.0,77,0.00,,,0.01,Weather View 32 v70,2013-09-25 03:47:00,
2013-09-24 17:52:00,74.0,65.5,29.96,NNW,343,9.0,37.0,75,0.00,,,0.01,Weather View 32 v70,2013-09-25 03:52:00,
2013-09-24 17:57:00,74.0,65.5,29.96,NNW,345,21.0,37.0,75,0.00,,,0.01,Weather View 32 v70,2013-09-25 03:57:00,
2013-09-24 18:01:00,73.9,65.4,29.97,North,353,23.0,37.0,75,0.00,,,0.01,Weather View 32 v70,2013-09-25 04:01:00,
2013-09-24 18:02:00,73.9,65.4,29.97,North,2,17.0,37.0,75,0.00,,,0.01,Weather View 32 v70,2013-09-25 04:02:00,
2013-09-24 18:07:00,73.9,65.4,29.95,NNW,345,24.0,37.0,75,0.00,,,0.01,Weather View 32 v70,2013-09-25 04:07:00,
2013-09-24 18:12:00,74.0,65.2,29.97,NNE,12,25.0,37.0,74,0.00,,,0.01,Weather View 32 v70,2013-09-25 04:12:00,
2013-09-24 18:17:00,74.2,65.0,29.95,North,351,32.0,37.0,73,0.00,,,0.01,Weather View 32 v70,2013-09-25 04:17:00,
2013-09-24 18:22:00,74.9,64.8,29.95,North,356,32.0,39.0,71,0.00,,,0.01,Weather View 32 v70,2013-09-25 04:22:00,
2013-09-24 18:27:00,75.3,64.4,29.95,North,9,26.0,39.0,69,0.00,,,0.01,Weather View 32 v70,2013-09-25 04:27:00,
2013-09-24 18:32:00,75.2,64.3,29.94,NNE,12,30.0,39.0,69,0.00,,,0.01,Weather View 32 v70,2013-09-25 04:32:00,
2013-09-24 18:37:00,75.0,64.1,29.96,North,357,31.0,39.0,69,0.00,,,0.01,Weather View 32 v70,2013-09-25 04:37:00,
2013-09-24 18:42:00,75.6,63.4,29.95,North,358,31.0,39.0,66,0.00,,,0.01,Weather View 32 v70,2013-09-25 04:42:00,
2013-09-24 18:47:00,75.1,64.2,29.96,NNE,19,28.0,39.0,69,0.00,,,0.01,Weather View 32 v70,2013-09-25 04:47:00,
2013-09-24 18:52:00,74.7,64.2,29.95,North,355,29.0,39.0,70,0.00,,,0.01,Weather View 32 v70,2013-09-25 04:52:00,
2013-09-24 18:57:00,74.4,64.7,29.96,NNE,15,28.0,39.0,72,0.00,,,0.01,Weather View 32 v70,2013-09-25 04:57:00,
2013-09-24 19:02:00,74.3,64.7,29.97,North,10,31.0,39.0,72,0.00,,,0.01,Weather View 32 v70,2013-09-25 05:02:00,
2013-09-24 19:07:00,74.0,65.2,29.96,NNE,12,33.0,39.0,74,0.00,,,0.01,Weather View 32 v70,2013-09-25 05:07:00,
2013-09-24 19:12:00,73.9,65.4,29.97,NE,35,28.0,39.0,75,0.00,,,0.01,Weather View 32 v70,2013-09-25 05:12:00,
2013-09-24 19:17:00,73.7,65.3,29.98,NNE,20,30.0,39.0,75,0.00,,,0.01,Weather View 32 v70,2013-09-25 05:17:00,
2013-09-24 19:22:00,73.6,65.5,29.97,North,359,34.0,39.0,76,0.00,,,0.01,Weather View 32 v70,2013-09-25 05:22:00,
2013-09-24 19:27:00,73.6,65.5,29.96,North,6,28.0,38.0,76,0.00,,,0.01,Weather View 32 v70,2013-09-25 05:27:00,
2013-09-24 19:32:00,73.4,65.7,29.97,North,7,26.0,38.0,77,0.00,,,0.01,Weather View 32 v70,2013-09-25 05:32:00,
2013-09-24 19:37:00,73.5,65.4,29.99,NNW,348,12.0,38.0,76,0.00,,,0.01,Weather View 32 v70,2013-09-25 05:37:00,
2013-09-24 19:42:00,73.5,65.4,29.98,NNW,345,14.0,38.0,76,0.00,,,0.01,Weather View 32 v70,2013-09-25 05:42:00,
2013-09-24 19:47:00,73.5,65.4,29.99,NNW,343,36.0,38.0,76,0.00,,,0.01,Weather View 32 v70,2013-09-25 05:47:00,
2013-09-24 19:52:00,73.5,65.4,29.99,NW,315,18.0,38.0,76,0.00,,,0.01,Weather View 32 v70,2013-09-25 05:52:00,
2013-09-24 19:57:00,73.4,65.7,30.00,NNW,337,25.0,38.0,77,0.00,,,0.01,Weather View 32 v70,2013-09-25 05:57:00,
2013-09-24 20:02:00,73.3,65.6,30.00,NNE,24,14.0,38.0,77,0.00,,,0.01,Weather View 32 v70,2013-09-25 06:02:00,
2013-09-24 20:07:00,73.3,65.6,30.01,North,8,14.0,38.0,77,0.00,,,0.01,Weather View 32 v70,2013-09-25 06:07:00,
2013-09-24 20:12:00,73.3,65.2,30.01,WNW,301,9.0,38.0,76,0.00,,,0.01,Weather View 32 v70,2013-09-25 06:12:00,
2013-09-24 20:17:00,73.5,65.4,30.00,NNW,344,23.0,37.0,76,0.00,,,0.01,Weather View 32 v70,2013-09-25 06:17:00,
2013-09-24 20:22:00,73.7,65.3,30.01,NNW,332,16.0,37.0,75,0.00,,,0.01,Weather View 32 v70,2013-09-25 06:22:00,
2013-09-24 20:27:00,73.8,65.3,30.01,North,6,12.0,37.0,75,0.00,,,0.01,Weather View 32 v70,2013-09-25 06:27:00,
2013-09-24 20:32:00,73.9,65.4,30.02,North,355,8.0,37.0,75,0.00,,,0.01,Weather View 32 v70,2013-09-25 06:32:00,
2013-09-24 20:37:00,73.9,65.4,30.02,North,357,20.0,37.0,75,0.00,,,0.01,Weather View 32 v70,2013-09-25 06:37:00,
2013-09-24 20:42:00,73.7,65.3,30.02,NW,316,14.0,37.0,75,0.00,,,0.01,Weather View 32 v70,2013-09-25 06:42:00,
2013-09-24 20:47:00,73.7,65.6,30.01,North,1,24.0,37.0,76,0.00,,,0.01,Weather View 32 v70,2013-09-25 06:47:00,
2013-09-24 20:52:00,73.6,65.9,30.01,NNW,337,21.0,30.0,77,0.00,,,0.01,Weather View 32 v70,2013-09-25 06:52:00,
2013-09-24 20:57:00,73.7,65.6,30.01,NNE,17,21.0,31.0,76,0.00,,,0.01,Weather View 32 v70,2013-09-25 06:57:00,
2013-09-24 21:02:00,73.8,65.7,30.00,North,9,21.0,31.0,76,0.00,,,0.01,Weather View 32 v70,2013-09-25 07:02:00,
2013-09-24 21:07:00,73.9,65.1,30.01,North,6,25.0,31.0,74,0.00,,,0.01,Weather View 32 v70,2013-09-25 07:07:00,
2013-09-24 21:12:00,73.9,65.1,30.01,North,11,29.0,31.0,74,0.00,,,0.01,Weather View 32 v70,2013-09-25 07:12:00,
2013-09-24 21:17:00,73.9,65.8,30.01,NW,314,24.0,34.0,76,0.00,,,0.01,Weather View 32 v70,2013-09-25 07:17:00,
2013-09-24 21:22:00,73.6,65.9,30.00,North,360,25.0,35.0,77,0.00,,,0.01,Weather View 32 v70,2013-09-25 07:22:00,
2013-09-24 21:27:00,73.7,65.6,30.00,North,357,25.0,35.0,76,0.00,,,0.01,Weather View 32 v70,2013-09-25 07:27:00,
2013-09-24 21:32:00,73.5,66.2,30.00,North,349,21.0,40.0,78,0.00,,,0.01,Weather View 32 v70,2013-09-25 07:32:00,
2013-09-24 21:37:00,73.4,66.1,30.02,NNW,347,25.0,40.0,78,0.00,,,0.01,Weather View 32 v70,2013-09-25 07:37:00,
2013-09-24 21:42:00,73.5,66.2,30.01,NW,318,14.0,40.0,78,0.00,,,0.01,Weather View 32 v70,2013-09-25 07:42:00,
2013-09-24 21:47:00,73.5,65.4,30.02,NNW,347,25.0,40.0,76,0.00,,,0.01,Weather View 32 v70,2013-09-25 07:47:00,
2013-09-24 21:52:00,73.4,65.3,30.02,NNE,21,18.0,40.0,76,0.00,,,0.01,Weather View 32 v70,2013-09-25 07:52:00,
2013-09-24 21:57:00,73.5,65.1,30.02,North,360,23.0,40.0,75,0.00,,,0.01,Weather View 32 v70,2013-09-25 07:57:00,
2013-09-24 22:02:00,73.5,65.1,30.01,NNW,339,23.0,40.0,75,0.00,,,0.01,Weather View 32 v70,2013-09-25 08:02:00,
2013-09-24 22:07:00,73.6,65.2,30.02,North,360,21.0,40.0,75,0.00,,,0.01,Weather View 32 v70,2013-09-25 08:07:00,
2013-09-24 22:12:00,73.9,63.9,30.01,NNW,333,22.0,40.0,71,0.00,,,0.01,Weather View 32 v70,2013-09-25 08:12:00,
2013-09-24 22:17:00,74.3,62.6,30.01,NNE,14,15.0,40.0,67,0.00,,,0.01,Weather View 32 v70,2013-09-25 08:17:00,
2013-09-24 22:22:00,74.7,62.1,30.00,North,9,21.0,40.0,65,0.00,,,0.01,Weather View 32 v70,2013-09-25 08:22:00,
2013-09-24 22:27:00,74.8,61.8,29.99,North,8,27.0,40.0,64,0.00,,,0.01,Weather View 32 v70,2013-09-25 08:27:00,
2013-09-24 22:32:00,75.0,61.5,30.01,North,1,20.0,35.0,63,0.00,,,0.01,Weather View 32 v70,2013-09-25 08:32:00,
2013-09-24 22:37:00,74.7,62.1,30.00,NNW,333,23.0,35.0,65,0.00,,,0.01,Weather View 32 v70,2013-09-25 08:37:00,
2013-09-24 22:42:00,74.6,62.4,29.99,NNE,31,30.0,35.0,66,0.00,,,0.01,Weather View 32 v70,2013-09-25 08:42:00,
2013-09-24 22:47:00,74.1,62.8,30.00,North,9,18.0,35.0,68,0.00,,,0.01,Weather View 32 v70,2013-09-25 08:47:00,
2013-09-24 22:53:00,73.8,63.8,30.00,NNE,18,24.0,35.0,71,0.00,,,0.01,Weather View 32 v70,2013-09-25 08:53:00,
2013-09-24 22:58:00,73.5,63.5,30.01,East,80,17.0,35.0,71,0.00,,,0.01,Weather View 32 v70,2013-09-25 08:58:00,
2013-09-24 23:03:00,73.4,63.8,30.01,North,5,21.0,35.0,72,0.00,,,0.01,Weather View 32 v70,2013-09-25 09:03:00,
2013-09-24 23:08:00,73.4,63.8,30.01,NNE,24,19.0,35.0,72,0.00,,,0.01,Weather View 32 v70,2013-09-25 09:08:00,
2013-09-24 23:13:00,73.4,63.4,30.01,North,10,27.0,35.0,71,0.00,,,0.01,Weather View 32 v70,2013-09-25 09:13:00,
2013-09-24 23:18:00,73.4,64.6,30.01,North,355,30.0,35.0,74,0.00,,,0.01,Weather View 32 v70,2013-09-25 09:18:00,
2013-09-24 23:23:00,73.4,64.6,30.00,North,355,23.0,35.0,74,0.00,,,0.01,Weather View 32 v70,2013-09-25 09:23:00,
2013-09-24 23:28:00,73.4,64.6,30.00,North,359,24.0,35.0,74,0.00,,,0.01,Weather View 32 v70,2013-09-25 09:28:00,
2013-09-24 23:33:00,73.3,65.6,29.99,NNW,343,25.0,34.0,77,0.00,,,0.01,Weather View 32 v70,2013-09-25 09:33:00,
2013-09-24 23:38:00,73.1,65.8,29.99,North,5,26.0,34.0,78,0.00,,,0.01,Weather View 32 v70,2013-09-25 09:38:00,
2013-09-24 23:43:00,73.1,65.8,30.01,NNE,19,11.0,34.0,78,-0.01,,,0.01,Weather View 32 v70,2013-09-25 09:43:00,
2013-09-24 23:48:00,73.0,65.3,30.00,NW,312,13.0,31.0,77,0.00,,,0.01,Weather View 32 v70,2013-09-25 09:48:00,
2013-09-24 23:53:00,73.1,64.7,30.00,NNE,18,22.0,31.0,75,0.00,,,0.01,Weather View 32 v70,2013-09-25 09:53:00,
2013-09-24 23:58:00,73.0,65.0,30.01,North,349,10.0,31.0,76,-0.01,,,0.00,Weather View 32 v70,2013-09-25 09:58:00,